createdAt,value
2023-02-12T00:01:25.782Z,10.00
2023-02-12T00:03:53.456Z,13.60
2023-02-12T00:06:21.001Z,10.65
2023-02-12T00:08:51.522Z,12.48
2023-02-12T00:11:21.656Z,12.90
2023-02-12T00:13:49.656Z,14.57
2023-02-12T00:16:20.250Z,12.27
2023-02-12T00:18:48.187Z,9.40
2023-02-12T00:21:15.433Z,11.98
2023-02-12T00:23:42.912Z,11.05
2023-02-12T00:26:16.996Z,11.07
2023-02-12T00:28:49.039Z,12.40
2023-02-12T00:31:20.514Z,11.40
2023-02-12T00:33:49.001Z,9.82
2023-02-12T00:36:19.581Z,10.10
2023-02-12T00:38:48.098Z,11.82
2023-02-12T00:41:15.962Z,11.30
2023-02-12T00:43:43.225Z,11.02
2023-02-12T00:46:10.666Z,13.75
2023-02-12T00:48:38.174Z,12.18
2023-02-12T00:51:05.985Z,8.50
2023-02-12T00:53:34.216Z,11.65
2023-02-12T00:56:02.128Z,9.70
2023-02-12T00:58:29.431Z,8.50
2023-02-12T01:00:56.766Z,10.80
2023-02-12T01:03:25.197Z,10.45
2023-02-12T01:05:53.520Z,8.45
2023-02-12T01:08:21.954Z,9.60
2023-02-12T01:11:03.590Z,6.72
2023-02-12T01:13:32.457Z,6.88
2023-02-12T01:16:09.112Z,8.15
2023-02-12T01:18:37.882Z,9.00
2023-02-12T01:21:15.042Z,9.45
2023-02-12T01:23:43.284Z,11.25
2023-02-12T01:26:11.821Z,10.90
2023-02-12T01:28:44.124Z,17.02
2023-02-12T01:31:20.592Z,12.73
2023-02-12T01:33:50.200Z,14.18
2023-02-12T01:36:17.915Z,10.45
2023-02-12T01:38:47.526Z,10.52
2023-02-12T01:41:26.930Z,10.20
2023-02-12T01:44:12.377Z,10.82
2023-02-12T01:46:40.433Z,11.80
2023-02-12T01:49:14.328Z,10.18
2023-02-12T01:51:42.804Z,10.68
2023-02-12T01:54:13.659Z,11.25
2023-02-12T01:56:42.373Z,11.32
2023-02-12T01:59:11.968Z,12.32
2023-02-12T02:01:39.569Z,9.73
2023-02-12T02:04:13.600Z,10.73
2023-02-12T02:06:59.538Z,13.68
2023-02-12T02:09:28.613Z,10.20
2023-02-12T02:12:14.978Z,9.85
2023-02-12T02:14:43.263Z,14.07
2023-02-12T02:17:24.376Z,8.48
2023-02-12T02:20:12.676Z,9.68
2023-02-12T02:23:09.801Z,10.20
2023-02-12T02:25:37.311Z,9.63
2023-02-12T02:28:19.968Z,11.25
2023-02-12T02:30:51.656Z,11.20
2023-02-12T02:33:21.889Z,9.40
2023-02-12T02:36:05.553Z,11.43
2023-02-12T02:39:13.979Z,7.82
2023-02-12T02:41:49.598Z,12.13
2023-02-12T02:44:32.812Z,10.75
2023-02-12T02:47:02.690Z,10.18
2023-02-12T02:49:40.668Z,9.98
2023-02-12T02:52:12.512Z,9.30
2023-02-12T02:54:48.908Z,10.00
2023-02-12T02:57:28.829Z,10.93
2023-02-12T03:00:04.295Z,9.95
2023-02-12T03:02:38.949Z,10.57
2023-02-12T03:05:16.224Z,10.55
2023-02-12T03:08:01.626Z,9.90
2023-02-12T03:10:38.725Z,8.63
2023-02-12T03:13:37.934Z,11.82
2023-02-12T03:16:26.622Z,9.95
2023-02-12T03:19:02.523Z,8.63
2023-02-12T03:21:48.624Z,9.52
2023-02-12T03:24:28.405Z,9.80
2023-02-12T03:27:11.772Z,8.95
2023-02-12T03:29:39.608Z,9.73
2023-02-12T03:32:06.933Z,8.48
2023-02-12T03:34:48.478Z,11.07
2023-02-12T03:40:20.909Z,9.73
2023-02-12T03:43:20.765Z,13.20
2023-02-12T03:45:48.060Z,10.50
2023-02-12T03:48:37.491Z,9.10
2023-02-12T03:51:29.128Z,10.15
2023-02-12T03:56:36.590Z,11.43
2023-02-12T03:59:04.942Z,10.60
2023-02-12T04:01:34.404Z,8.13
2023-02-12T04:04:06.123Z,10.27
2023-02-12T04:06:34.273Z,8.55
2023-02-12T04:09:11.453Z,8.38
2023-02-12T04:11:41.783Z,8.10
2023-02-12T04:14:15.462Z,6.88
2023-02-12T04:16:54.834Z,7.57
2023-02-12T04:19:51.508Z,7.68
2023-02-12T04:22:45.714Z,8.07
2023-02-12T04:25:49.066Z,8.95
2023-02-12T04:28:48.976Z,8.25
2023-02-12T04:31:23.235Z,8.05
2023-02-12T04:33:56.839Z,10.10
2023-02-12T04:36:30.062Z,8.95
2023-02-12T04:39:11.275Z,9.75
2023-02-12T04:41:42.015Z,10.60
2023-02-12T04:44:38.432Z,8.02
2023-02-12T04:47:05.931Z,7.65
2023-02-12T04:49:33.274Z,6.70
2023-02-12T04:52:00.813Z,8.45
2023-02-12T04:54:28.147Z,8.60
2023-02-12T04:56:57.430Z,8.82
2023-02-12T04:59:24.715Z,9.35
2023-02-12T05:01:52.397Z,11.70
2023-02-12T05:04:20.335Z,7.35
2023-02-12T05:06:54.873Z,7.78
2023-02-12T05:09:22.141Z,6.63
2023-02-12T05:11:49.754Z,8.10
2023-02-12T05:14:16.964Z,6.13
2023-02-12T05:16:44.361Z,7.22
2023-02-12T05:19:12.272Z,7.93
2023-02-12T05:21:39.719Z,8.95
2023-02-12T05:24:07.559Z,6.93
2023-02-12T05:26:35.859Z,7.28
2023-02-12T05:29:03.650Z,12.80
2023-02-12T05:31:31.372Z,8.15
2023-02-12T05:33:59.918Z,8.73
2023-02-12T05:36:27.338Z,9.27
2023-02-12T05:38:58.746Z,8.10
2023-02-12T05:43:53.968Z,11.50
2023-02-12T05:46:22.564Z,7.60
2023-02-12T05:48:50.070Z,7.78
2023-02-12T05:51:22.019Z,6.25
2023-02-12T05:53:56.088Z,6.45
2023-02-12T05:56:26.091Z,7.22
2023-02-12T05:59:21.912Z,9.40
2023-02-12T06:01:51.606Z,10.98
2023-02-12T06:04:25.641Z,7.97
2023-02-12T06:06:54.246Z,6.95
2023-02-12T06:09:22.035Z,5.63
2023-02-12T06:11:49.371Z,8.05
2023-02-12T06:14:19.699Z,8.10
2023-02-12T06:16:51.690Z,8.77
2023-02-12T06:19:20.363Z,9.07
2023-02-12T06:21:47.663Z,7.85
2023-02-12T06:24:16.486Z,13.60
2023-02-12T06:26:44.103Z,11.45
2023-02-12T06:29:13.351Z,10.63
2023-02-12T06:31:41.221Z,10.27
2023-02-12T06:34:10.605Z,8.18
2023-02-12T06:36:40.427Z,10.68
2023-02-12T06:39:08.600Z,8.02
2023-02-12T06:41:35.920Z,8.80
2023-02-12T06:44:03.825Z,9.57
2023-02-12T06:46:31.659Z,7.13
2023-02-12T06:49:00.766Z,7.63
2023-02-12T06:51:29.465Z,11.60
2023-02-12T06:53:57.907Z,8.25
2023-02-12T06:56:26.265Z,9.63
2023-02-12T06:58:56.922Z,10.98
2023-02-12T07:01:27.397Z,10.45
2023-02-12T07:04:04.960Z,10.55
2023-02-12T07:06:34.993Z,9.75
2023-02-12T07:09:03.496Z,9.35
2023-02-12T07:11:36.872Z,11.75
2023-02-12T07:14:07.457Z,9.90
2023-02-12T07:16:34.912Z,9.65
2023-02-12T07:19:02.304Z,17.90
2023-02-12T07:21:29.521Z,10.75
2023-02-12T07:23:56.760Z,11.10
2023-02-12T07:26:24.509Z,9.70
2023-02-12T07:28:52.107Z,10.27
2023-02-12T07:31:23.961Z,11.65
2023-02-12T07:33:55.840Z,11.40
2023-02-12T07:36:24.233Z,15.38
2023-02-12T07:38:51.509Z,11.18
2023-02-12T07:41:30.403Z,11.52
2023-02-12T07:44:10.429Z,10.77
2023-02-12T07:46:46.220Z,16.60
2023-02-12T07:49:18.884Z,14.50
2023-02-12T07:51:47.180Z,15.32
2023-02-12T07:54:15.009Z,13.73
2023-02-12T07:56:43.761Z,11.65
2023-02-12T07:59:12.906Z,10.77
2023-02-12T08:01:44.207Z,9.77
2023-02-12T08:04:14.068Z,11.82
2023-02-12T08:06:43.649Z,14.15
2023-02-12T08:09:13.995Z,12.70
2023-02-12T08:11:42.636Z,14.25
2023-02-12T08:14:13.136Z,28.42
2023-02-12T08:16:41.806Z,24.05
2023-02-12T08:19:18.606Z,22.92
2023-02-12T08:21:51.207Z,14.27
2023-02-12T08:24:18.965Z,11.20
2023-02-12T08:26:46.296Z,12.48
2023-02-12T08:29:17.434Z,11.90
2023-02-12T08:31:47.451Z,9.85
2023-02-12T08:34:21.443Z,8.20
2023-02-12T08:36:50.563Z,7.32
2023-02-12T08:39:19.237Z,6.75
2023-02-12T08:41:47.121Z,6.80
2023-02-12T08:44:15.430Z,8.43
2023-02-12T08:46:48.326Z,7.28
2023-02-12T08:49:18.172Z,4.57
2023-02-12T08:51:48.888Z,4.50
2023-02-12T08:54:22.721Z,5.40
2023-02-12T08:56:50.997Z,7.28
2023-02-12T08:59:18.873Z,6.95
2023-02-12T09:01:46.176Z,8.82
2023-02-12T09:04:21.699Z,5.28
2023-02-12T09:06:50.077Z,5.38
2023-02-12T09:09:18.148Z,8.20
2023-02-12T09:11:45.816Z,5.97
2023-02-12T09:14:16.567Z,5.72
2023-02-12T09:16:43.962Z,6.15
2023-02-12T09:19:13.567Z,5.85
2023-02-12T09:21:41.380Z,4.15
2023-02-12T09:24:08.863Z,5.25
2023-02-12T09:26:36.333Z,4.95
2023-02-12T09:29:04.892Z,6.35
2023-02-12T09:31:33.605Z,3.63
2023-02-12T09:34:04.053Z,3.90
2023-02-12T09:52:12.748Z,6.30
2023-02-12T09:54:41.516Z,5.95
2023-02-12T09:57:38.889Z,7.75
2023-02-12T10:00:08.435Z,6.13
2023-02-12T10:02:40.827Z,7.95
2023-02-12T10:05:35.126Z,7.00
2023-02-12T10:08:14.993Z,4.53
2023-02-12T10:11:00.682Z,4.72
2023-02-12T10:13:37.213Z,4.47
2023-02-12T10:16:32.722Z,6.25
2023-02-12T10:19:17.774Z,4.40
2023-02-12T10:22:17.516Z,4.78
